createdAt,value
2018-09-26T00:00:22.998Z,102403.41
2018-09-26T00:05:26.400Z,102400.41
2018-09-26T00:10:29.814Z,102395.86
2018-09-26T00:15:33.186Z,102399.44
2018-09-26T00:20:36.528Z,102398.21
2018-09-26T00:25:39.853Z,102405.77
2018-09-26T00:30:43.219Z,102402.48
2018-09-26T00:35:46.701Z,102400.98
2018-09-26T00:40:50.020Z,102389.57
2018-09-26T00:45:53.476Z,102390.27
2018-09-26T00:50:56.858Z,102388.55
2018-09-26T00:56:00.282Z,102397.09
2018-09-26T01:01:03.730Z,102389.22
2018-09-26T01:06:07.335Z,102394.38
2018-09-26T01:11:10.680Z,102393.78
2018-09-26T01:16:14.206Z,102389.73
2018-09-26T01:21:17.560Z,102376.06
2018-09-26T01:26:20.902Z,102379.75
2018-09-26T01:31:24.230Z,102367.23
2018-09-26T01:36:27.546Z,102341.13
2018-09-26T01:41:30.943Z,102350.59
2018-09-26T01:46:34.294Z,102349.66
2018-09-26T01:51:37.623Z,102342.93
2018-09-26T01:56:41.218Z,102328.63
2018-09-26T02:01:44.543Z,102319.50
2018-09-26T02:06:47.855Z,102320.34
2018-09-26T02:11:51.354Z,102305.58
2018-09-26T02:16:54.661Z,102299.05
2018-09-26T02:21:58.002Z,102292.91
2018-09-26T02:27:01.342Z,102285.09
2018-09-26T02:32:04.650Z,102278.77
2018-09-26T02:37:09.136Z,102283.06
2018-09-26T02:42:12.579Z,102265.05
2018-09-26T02:47:15.907Z,102261.08
2018-09-26T02:52:19.250Z,102276.81
2018-09-26T02:57:22.689Z,102293.36
2018-09-26T03:02:26.047Z,102306.69
2018-09-26T03:07:29.424Z,102287.72
2018-09-26T03:12:32.750Z,102288.14
2018-09-26T03:17:36.070Z,102288.04
2018-09-26T03:22:39.426Z,102280.17
2018-09-26T03:27:42.759Z,102267.29
2018-09-26T03:32:46.123Z,102256.77
2018-09-26T03:37:49.554Z,102265.95
2018-09-26T03:42:52.887Z,102266.40
2018-09-26T03:47:56.210Z,102267.36
2018-09-26T03:52:59.532Z,102266.16
2018-09-26T03:58:02.902Z,102265.47
2018-09-26T04:03:06.268Z,102262.83
2018-09-26T04:08:09.555Z,102267.16
2018-09-26T04:13:13.206Z,102268.95
2018-09-26T04:18:16.706Z,102260.87
2018-09-26T04:23:20.098Z,102245.84
2018-09-26T04:28:23.630Z,102242.09
2018-09-26T04:33:27.165Z,102256.81
2018-09-26T04:38:30.581Z,102260.81
2018-09-26T04:43:34.163Z,102265.17
2018-09-26T04:48:37.585Z,102281.84
2018-09-26T04:53:40.920Z,102262.85
2018-09-26T04:58:44.322Z,102254.45
2018-09-26T05:03:47.851Z,102259.12
2018-09-26T05:08:51.351Z,102248.77
2018-09-26T05:13:54.767Z,102241.73
2018-09-26T05:18:58.517Z,102237.28
2018-09-26T05:24:01.858Z,102228.08
2018-09-26T05:29:05.169Z,102227.20
2018-09-26T05:34:09.518Z,102211.97
2018-09-26T05:39:13.102Z,102205.84
2018-09-26T05:44:16.463Z,102214.39
2018-09-26T05:49:19.818Z,102208.75
2018-09-26T05:54:23.126Z,102206.92
2018-09-26T05:59:27.299Z,102209.97
2018-09-26T06:04:30.606Z,102206.64
2018-09-26T06:09:34.029Z,102202.34
2018-09-26T06:14:37.362Z,102199.47
2018-09-26T06:19:41.224Z,102195.64
2018-09-26T06:24:44.837Z,102198.17
2018-09-26T06:29:48.102Z,102187.62
2018-09-26T06:34:51.466Z,102180.68
2018-09-26T06:39:54.816Z,102172.63
2018-09-26T06:44:58.128Z,102172.84
2018-09-26T06:50:01.586Z,102177.07
2018-09-26T06:55:05.283Z,102181.27
2018-09-26T07:00:08.866Z,102181.33
2018-09-26T07:05:12.142Z,102176.23
2018-09-26T07:10:15.485Z,102178.97
2018-09-26T07:15:18.773Z,102177.88
2018-09-26T07:20:22.504Z,102186.64
2018-09-26T07:25:25.798Z,102185.51
2018-09-26T07:30:29.135Z,102203.17
2018-09-26T07:35:32.421Z,102193.76
2018-09-26T07:40:35.726Z,102201.47
2018-09-26T07:45:39.094Z,102202.50
2018-09-26T07:50:42.375Z,102189.53
2018-09-26T07:55:45.720Z,102196.97
2018-09-26T08:00:49.064Z,102189.05
2018-09-26T08:05:52.403Z,102187.50
2018-09-26T08:10:55.697Z,102183.16
2018-09-26T08:15:59.182Z,102179.67
2018-09-26T08:21:02.870Z,102173.69
2018-09-26T08:26:06.354Z,102169.09
2018-09-26T08:31:09.664Z,102163.61
2018-09-26T08:36:12.956Z,102149.36
2018-09-26T08:41:16.318Z,102153.80
2018-09-26T08:46:19.679Z,102159.95
2018-09-26T08:51:23.007Z,102150.44
2018-09-26T08:56:26.311Z,102137.30
2018-09-26T09:01:34.891Z,102128.08
2018-09-26T09:06:38.200Z,102123.84
2018-09-26T09:11:41.547Z,102122.42
2018-09-26T09:16:44.821Z,102109.78
2018-09-26T09:21:48.270Z,102105.97
2018-09-26T09:32:00.377Z,102104.69
2018-09-26T09:37:03.793Z,102102.87
2018-09-26T09:42:07.364Z,102099.18
2018-09-26T09:47:10.664Z,102098.96
2018-09-26T09:52:13.996Z,102085.64
2018-09-26T09:57:17.314Z,102065.16
2018-09-26T10:02:20.654Z,102055.87
2018-09-26T10:07:24.605Z,102042.17
2018-09-26T10:12:27.972Z,102045.38
2018-09-26T10:17:32.315Z,102045.56
2018-09-26T10:22:35.702Z,102051.69
2018-09-26T10:27:39.071Z,102027.77
2018-09-26T10:32:42.939Z,102023.97
2018-09-26T10:37:46.391Z,102029.59
2018-09-26T10:42:50.178Z,102020.05
2018-09-26T10:47:53.657Z,102029.41
2018-09-26T10:52:56.983Z,102026.59
2018-09-26T10:58:00.340Z,102021.62
2018-09-26T11:03:03.655Z,102007.22
2018-09-26T11:08:07.086Z,101996.04
2018-09-26T11:13:10.442Z,101978.00
2018-09-26T11:18:13.755Z,101964.25
2018-09-26T11:23:17.059Z,101956.70
2018-09-26T11:28:20.436Z,101951.25
2018-09-26T11:33:23.838Z,101963.30
2018-09-26T11:38:27.255Z,101954.92
2018-09-26T11:43:30.547Z,101955.16
2018-09-26T11:48:33.883Z,101937.41
2018-09-26T11:53:37.243Z,101933.73
2018-09-26T11:58:40.799Z,101933.95
2018-09-26T12:03:44.179Z,101930.28
2018-09-26T12:08:47.654Z,101911.27
2018-09-26T12:13:51.126Z,101904.05
2018-09-26T12:18:54.383Z,101900.66
2018-09-26T12:23:57.715Z,101884.84
2018-09-26T12:29:01.051Z,101885.40
2018-09-26T12:34:04.364Z,101880.59
2018-09-26T12:39:08.991Z,101870.33
2018-09-26T12:44:12.286Z,101851.28
2018-09-26T12:49:15.588Z,101844.84
2018-09-26T12:54:18.888Z,101841.61
2018-09-26T12:59:22.201Z,101839.84
2018-09-26T13:04:25.676Z,101839.50
2018-09-26T13:09:28.903Z,101829.89
2018-09-26T13:14:32.204Z,101818.81
2018-09-26T13:19:35.520Z,101812.34
2018-09-26T13:24:38.811Z,101801.34
2018-09-26T13:29:42.295Z,101800.81
2018-09-26T13:34:45.608Z,101788.80
2018-09-26T13:39:48.979Z,101772.94
2018-09-26T13:44:52.274Z,101768.61
2018-09-26T13:49:55.655Z,101770.87
2018-09-26T13:54:58.998Z,101767.45
2018-09-26T14:00:02.306Z,101760.95
2018-09-26T14:05:06.692Z,101753.72
2018-09-26T14:10:10.059Z,101743.84
2018-09-26T14:15:13.442Z,101729.41
2018-09-26T14:20:33.504Z,101735.92
2018-09-26T14:25:37.123Z,101718.77
2018-09-26T14:30:40.956Z,101719.03
2018-09-26T14:35:44.402Z,101714.15
2018-09-26T14:40:47.992Z,101706.70
2018-09-26T14:45:51.638Z,101689.14
2018-09-26T14:50:55.187Z,101686.52
2018-09-26T14:55:59.069Z,101681.97
2018-09-26T15:01:02.634Z,101674.98
2018-09-26T15:06:06.214Z,101677.87
2018-09-26T15:11:09.768Z,101678.83
2018-09-26T15:16:13.314Z,101665.60
2018-09-26T15:21:16.912Z,101661.13
2018-09-26T15:26:20.474Z,101652.41
2018-09-26T15:31:24.043Z,101645.20
2018-09-26T15:36:27.641Z,101648.93
2018-09-26T15:41:31.260Z,101655.20
2018-09-26T15:46:34.861Z,101653.17
2018-09-26T15:51:38.414Z,101653.94
2018-09-26T15:56:42.019Z,101645.42
2018-09-26T16:01:45.600Z,101638.84
2018-09-26T16:06:48.913Z,101635.08
2018-09-26T16:11:52.217Z,101645.38
2018-09-26T16:16:55.518Z,101648.39
2018-09-26T16:21:59.083Z,101638.97
2018-09-26T16:27:02.379Z,101637.05
2018-09-26T16:32:05.672Z,101645.68
2018-09-26T16:37:08.973Z,101633.70
2018-09-26T16:42:12.310Z,101632.36
2018-09-26T16:47:15.630Z,101634.97
2018-09-26T16:52:19.003Z,101626.80
2018-09-26T16:57:22.293Z,101636.01
2018-09-26T17:02:25.626Z,101646.03
2018-09-26T17:07:28.922Z,101657.34
2018-09-26T17:12:32.226Z,101655.23
2018-09-26T17:17:35.543Z,101657.88
2018-09-26T17:22:39.097Z,101650.11
2018-09-26T17:27:42.412Z,101634.87
2018-09-26T17:32:45.718Z,101643.31
2018-09-26T17:37:49.055Z,101628.22
2018-09-26T17:42:52.546Z,101628.80
2018-09-26T17:47:55.856Z,101632.98
2018-09-26T17:52:59.160Z,101632.98
2018-09-26T17:58:02.458Z,101641.16
2018-09-26T18:03:05.763Z,101641.53
2018-09-26T18:08:09.078Z,101641.53
2018-09-26T18:13:12.481Z,101638.67
2018-09-26T18:18:15.846Z,101638.22
2018-09-26T18:23:19.363Z,101639.71
2018-09-26T18:28:22.648Z,101637.22
2018-09-26T18:33:26.012Z,101630.91
2018-09-26T18:38:29.315Z,101642.77
2018-09-26T18:43:32.622Z,101640.59
2018-09-26T18:48:36.003Z,101634.45
2018-09-26T18:53:39.440Z,101634.66
2018-09-26T18:58:42.840Z,101643.00
2018-09-26T19:03:46.208Z,101643.84
2018-09-26T19:08:49.639Z,101644.39
2018-09-26T19:13:52.975Z,101646.57
2018-09-26T19:18:56.279Z,101649.75
2018-09-26T19:23:59.592Z,101642.42
2018-09-26T19:29:02.896Z,101636.25
2018-09-26T19:34:06.223Z,101631.06
2018-09-26T19:39:10.618Z,101634.42
2018-09-26T19:44:15.470Z,101636.95
2018-09-26T19:49:19.486Z,101637.14
2018-09-26T19:54:22.860Z,101648.66
2018-09-26T19:59:26.213Z,101653.50
2018-09-26T20:04:29.633Z,101649.49
2018-09-26T20:09:32.970Z,101651.52
2018-09-26T20:14:36.262Z,101649.22
2018-09-26T20:19:39.591Z,101655.75
2018-09-26T20:24:42.895Z,101658.42
2018-09-26T20:29:46.463Z,101652.75
2018-09-26T20:34:49.552Z,101645.61
2018-09-26T20:39:52.998Z,101649.77
2018-09-26T20:44:56.396Z,101648.78
2018-09-26T20:49:59.755Z,101653.62
2018-09-26T20:55:03.307Z,101659.64
2018-09-26T21:00:06.693Z,101663.94
2018-09-26T21:05:10.024Z,101672.27
2018-09-26T21:10:13.435Z,101679.09
2018-09-26T21:15:16.754Z,101678.77
2018-09-26T21:20:21.635Z,101678.59
2018-09-26T21:25:24.998Z,101680.75
2018-09-26T21:30:28.326Z,101683.92
2018-09-26T21:35:31.800Z,101679.56
2018-09-26T21:40:35.208Z,101674.58
2018-09-26T21:45:38.679Z,101670.21
2018-09-26T21:50:42.553Z,101660.03
2018-09-26T21:55:45.862Z,101663.72
2018-09-26T22:00:54.630Z,101661.23
2018-09-26T22:05:58.011Z,101660.22
2018-09-26T22:11:01.355Z,101664.27
2018-09-26T22:16:04.682Z,101656.25
2018-09-26T22:21:08.039Z,101664.30
2018-09-26T22:26:11.440Z,101665.81
2018-09-26T22:31:14.833Z,101677.81
2018-09-26T22:36:18.216Z,101675.67
2018-09-26T22:41:21.538Z,101668.67
2018-09-26T22:46:24.977Z,101675.50
2018-09-26T22:51:28.311Z,101664.51
2018-09-26T22:56:31.646Z,101671.35
2018-09-26T23:01:35.002Z,101665.69
2018-09-26T23:06:38.315Z,101654.69
2018-09-26T23:11:41.802Z,101660.20
2018-09-26T23:16:45.187Z,101661.31
2018-09-26T23:21:48.510Z,101655.15
2018-09-26T23:26:51.825Z,101650.19
2018-09-26T23:31:55.188Z,101657.17
2018-09-26T23:36:58.520Z,101648.17
2018-09-26T23:42:01.843Z,101648.83
2018-09-26T23:47:05.257Z,101651.83
2018-09-26T23:52:08.583Z,101645.51
2018-09-26T23:57:11.912Z,101653.51
